LGKO

Kos Airport

Kos Island, Greece
TAF LGKO 151100Z 1512/1612 35020G30KT 9999 FEW018 BECMG 1607/1609 36015KT
Issued Valid From Valid To
Nov-15 @ 11:00 UTC
(2 hours ago)
Nov-15 @ 12:00 UTC
(43 minutes ago)
Nov-16 @ 12:00 UTC
(in 23 hours)
Nov-15 @ 12:00 to Nov-16 @ 07:00
TAF LGKO 151100Z 1512/1612 35020G30KT 9999 FEW018
Wind Visibility Clouds
350° at 20 knots
 Gusting to 30 knots
10,000+ meters
  • Few at 1,800' AGL
Becoming Nov-16 @ 07:00 to Nov-16 @ 12:00
BECMG 1607/1609 36015KT
Wind Visibility Clouds
360° at 15 knots 10,000+ meters
  • Few at 1,800' AGL
TAF LGKO 151100Z 1512/1612 35020G30KT 9999 FEW018 BECMG 1607/1609 36015KT
Issued Nov-15 @ 11:00 UTC
(2 hours ago)
Valid From Nov-15 @ 12:00 UTC
(43 minutes ago)
Valid To Nov-16 @ 12:00 UTC
(in 23 hours)
Nov-15 @ 12:00 - Nov-16 @ 07:00
Wind Visibility
350° at 20 knots
 Gusting to 30 knots
10,000+ meters
Clouds
  • Few at 1,800' AGL
Becoming Nov-16 @ 07:00 - Nov-16 @ 12:00
Wind Visibility
360° at 15 knots 10,000+ meters
Clouds
  • Few at 1,800' AGL